sensor_id;sensor_type;location;lat;lon;timestamp;pressure;altitude;pressure_sealevel;temperature;humidity
44457;BME280;30159;49.316;8.558;2024-03-17T00:00:45;101225.88;;;8.06;100.00
44457;BME280;30159;49.316;8.558;2024-03-17T00:03:11;101221.22;;;8.01;100.00
44457;BME280;30159;49.316;8.558;2024-03-17T00:05:39;101210.75;;;7.88;100.00
44457;BME280;30159;49.316;8.558;2024-03-17T00:08:05;101221.72;;;7.98;100.00
44457;BME280;30159;49.316;8.558;2024-03-17T00:10:32;101216.63;;;7.85;100.00
44457;BME280;30159;49.316;8.558;2024-03-17T00:12:57;101204.06;;;7.73;100.00
44457;BME280;30159;49.316;8.558;2024-03-17T00:15:24;101061.97;;;6.81;100.00
44457;BME280;30159;49.316;8.558;2024-03-17T00:17:50;101223.53;;;7.80;100.00
44457;BME280;30159;49.316;8.558;2024-03-17T00:20:16;101205.72;;;7.74;100.00
44457;BME280;30159;49.316;8.558;2024-03-17T00:22:47;101208.47;;;7.79;100.00
44457;BME280;30159;49.316;8.558;2024-03-17T00:25:14;101207.31;;;7.75;100.00
44457;BME280;30159;49.316;8.558;2024-03-17T00:27:39;101201.97;;;7.75;100.00
44457;BME280;30159;49.316;8.558;2024-03-17T00:30:09;101183.31;;;7.69;100.00
44457;BME280;30159;49.316;8.558;2024-03-17T00:32:38;101175.88;;;7.59;100.00
44457;BME280;30159;49.316;8.558;2024-03-17T00:35:06;101193.22;;;7.68;100.00
44457;BME280;30159;49.316;8.558;2024-03-17T00:37:32;101189.66;;;7.63;100.00
44457;BME280;30159;49.316;8.558;2024-03-17T00:40:00;101184.50;;;7.61;100.00
44457;BME280;30159;49.316;8.558;2024-03-17T00:42:25;101178.56;;;7.59;100.00
44457;BME280;30159;49.316;8.558;2024-03-17T00:44:52;101150.28;;;7.39;100.00
44457;BME280;30159;49.316;8.558;2024-03-17T00:47:18;101176.28;;;7.51;100.00
44457;BME280;30159;49.316;8.558;2024-03-17T00:49:44;101137.63;;;7.23;100.00
44457;BME280;30159;49.316;8.558;2024-03-17T00:52:10;101173.25;;;7.47;100.00
44457;BME280;30159;49.316;8.558;2024-03-17T00:54:36;101172.91;;;7.44;100.00
44457;BME280;30159;49.316;8.558;2024-03-17T00:57:04;101153.09;;;7.33;100.00
44457;BME280;30159;49.316;8.558;2024-03-17T00:59:30;101161.97;;;7.33;100.00
44457;BME280;30159;49.316;8.558;2024-03-17T01:01:56;101153.03;;;7.28;100.00
44457;BME280;30159;49.316;8.558;2024-03-17T01:04:23;101162.38;;;7.25;100.00
44457;BME280;30159;49.316;8.558;2024-03-17T01:06:48;101153.16;;;7.21;100.00
44457;BME280;30159;49.316;8.558;2024-03-17T01:09:15;101158.16;;;7.17;100.00
44457;BME280;30159;49.316;8.558;2024-03-17T01:11:40;101156.69;;;7.10;100.00
44457;BME280;30159;49.316;8.558;2024-03-17T01:14:09;101115.34;;;6.82;100.00
44457;BME280;30159;49.316;8.558;2024-03-17T01:16:34;101161.84;;;7.00;100.00
44457;BME280;30159;49.316;8.558;2024-03-17T01:19:01;101155.09;;;6.97;100.00
44457;BME280;30159;49.316;8.558;2024-03-17T01:21:27;101155.78;;;6.92;100.00
44457;BME280;30159;49.316;8.558;2024-03-17T01:23:53;101142.75;;;6.84;100.00
44457;BME280;30159;49.316;8.558;2024-03-17T01:26:19;101140.63;;;6.86;100.00
44457;BME280;30159;49.316;8.558;2024-03-17T01:28:46;101103.50;;;6.54;100.00
44457;BME280;30159;49.316;8.558;2024-03-17T01:31:13;101137.84;;;6.81;100.00
44457;BME280;30159;49.316;8.558;2024-03-17T01:33:40;101123.50;;;6.75;100.00
44457;BME280;30159;49.316;8.558;2024-03-17T01:36:06;101133.53;;;6.80;100.00
44457;BME280;30159;49.316;8.558;2024-03-17T01:38:32;101084.75;;;6.43;100.00
44457;BME280;30159;49.316;8.558;2024-03-17T01:40:59;101123.88;;;6.79;100.00
44457;BME280;30159;49.316;8.558;2024-03-17T01:43:26;101118.84;;;6.71;100.00
44457;BME280;30159;49.316;8.558;2024-03-17T01:45:52;101127.84;;;6.65;100.00
44457;BME280;30159;49.316;8.558;2024-03-17T01:48:20;101123.78;;;6.62;100.00
44457;BME280;30159;49.316;8.558;2024-03-17T01:50:48;101125.63;;;6.62;100.00
44457;BME280;30159;49.316;8.558;2024-03-17T01:53:16;101132.16;;;6.66;100.00
44457;BME280;30159;49.316;8.558;2024-03-17T01:55:44;101122.94;;;6.62;100.00
44457;BME280;30159;49.316;8.558;2024-03-17T01:58:12;101099.09;;;6.48;100.00
44457;BME280;30159;49.316;8.558;2024-03-17T02:00:39;101107.13;;;6.60;100.00
44457;BME280;30159;49.316;8.558;2024-03-17T02:03:06;101098.72;;;6.57;100.00
44457;BME280;30159;49.316;8.558;2024-03-17T02:05:35;101059.25;;;6.28;100.00
44457;BME280;30159;49.316;8.558;2024-03-17T02:08:03;101110.94;;;6.64;100.00
44457;BME280;30159;49.316;8.558;2024-03-17T02:10:29;101115.03;;;6.67;100.00
44457;BME280;30159;49.316;8.558;2024-03-17T02:12:56;101103.16;;;6.63;100.00
44457;BME280;30159;49.316;8.558;2024-03-17T02:15:21;101111.28;;;6.68;100.00
44457;BME280;30159;49.316;8.558;2024-03-17T02:17:48;101094.84;;;6.64;100.00
44457;BME280;30159;49.316;8.558;2024-03-17T02:20:14;101109.53;;;6.73;100.00
44457;BME280;30159;49.316;8.558;2024-03-17T02:22:42;101125.97;;;6.77;100.00
44457;BME280;30159;49.316;8.558;2024-03-17T02:25:08;101070.88;;;6.58;100.00
44457;BME280;30159;49.316;8.558;2024-03-17T02:27:35;101087.41;;;6.66;100.00
44457;BME280;30159;49.316;8.558;2024-03-17T02:30:01;101096.50;;;6.65;100.00
44457;BME280;30159;49.316;8.558;2024-03-17T02:32:28;101087.97;;;6.68;100.00
44457;BME280;30159;49.316;8.558;2024-03-17T02:34:54;101087.41;;;6.66;100.00
44457;BME280;30159;49.316;8.558;2024-03-17T02:37:22;101083.41;;;6.69;100.00
44457;BME280;30159;49.316;8.558;2024-03-17T02:39:49;101078.66;;;6.71;100.00
44457;BME280;30159;49.316;8.558;2024-03-17T02:42:15;101075.88;;;6.66;100.00
44457;BME280;30159;49.316;8.558;2024-03-17T02:44:41;101086.09;;;6.69;100.00
44457;BME280;30159;49.316;8.558;2024-03-17T02:47:07;101065.53;;;6.58;100.00
44457;BME280;30159;49.316;8.558;2024-03-17T02:49:35;101077.38;;;6.62;100.00
44457;BME280;30159;49.316;8.558;2024-03-17T02:52:06;101078.78;;;6.64;100.00
44457;BME280;30159;49.316;8.558;2024-03-17T02:54:33;101050.72;;;6.43;100.00
44457;BME280;30159;49.316;8.558;2024-03-17T02:57:02;101053.06;;;6.51;100.00
44457;BME280;30159;49.316;8.558;2024-03-17T02:59:29;101088.34;;;6.72;100.00
44457;BME280;30159;49.316;8.558;2024-03-17T03:01:56;101085.16;;;6.75;100.00
44457;BME280;30159;49.316;8.558;2024-03-17T03:04:25;101053.94;;;6.69;100.00
44457;BME280;30159;49.316;8.558;2024-03-17T03:06:52;101076.28;;;6.86;100.00
44457;BME280;30159;49.316;8.558;2024-03-17T03:09:18;101085.94;;;6.87;100.00
44457;BME280;30159;49.316;8.558;2024-03-17T03:11:51;101087.34;;;6.90;100.00
44457;BME280;30159;49.316;8.558;2024-03-17T03:14:19;101060.69;;;6.83;100.00
44457;BME280;30159;49.316;8.558;2024-03-17T03:16:45;101085.31;;;7.09;100.00
44457;BME280;30159;49.316;8.558;2024-03-17T03:19:12;101089.38;;;7.11;100.00
44457;BME280;30159;49.316;8.558;2024-03-17T03:21:39;101086.78;;;7.16;100.00
44457;BME280;30159;49.316;8.558;2024-03-17T03:24:06;101095.16;;;7.20;100.00
44457;BME280;30159;49.316;8.558;2024-03-17T03:26:33;101095.88;;;7.27;100.00
44457;BME280;30159;49.316;8.558;2024-03-17T03:28:59;101087.13;;;7.20;100.00
44457;BME280;30159;49.316;8.558;2024-03-17T03:31:28;101100.47;;;7.32;100.00
44457;BME280;30159;49.316;8.558;2024-03-17T03:33:54;101096.53;;;7.34;100.00
44457;BME280;30159;49.316;8.558;2024-03-17T03:36:22;101078.13;;;7.26;100.00
44457;BME280;30159;49.316;8.558;2024-03-17T03:38:49;101094.97;;;7.38;100.00
44457;BME280;30159;49.316;8.558;2024-03-17T03:41:16;101088.00;;;7.37;100.00
44457;BME280;30159;49.316;8.558;2024-03-17T03:43:42;101094.59;;;7.47;100.00
44457;BME280;30159;49.316;8.558;2024-03-17T03:46:11;101091.25;;;7.39;100.00
44457;BME280;30159;49.316;8.558;2024-03-17T03:48:39;101091.56;;;7.43;100.00
44457;BME280;30159;49.316;8.558;2024-03-17T03:51:06;101085.41;;;7.43;100.00
44457;BME280;30159;49.316;8.558;2024-03-17T03:53:33;101075.38;;;7.38;100.00
44457;BME280;30159;49.316;8.558;2024-03-17T03:56:03;101085.97;;;7.45;100.00
44457;BME280;30159;49.316;8.558;2024-03-17T03:58:31;101084.34;;;7.44;100.00
44457;BME280;30159;49.316;8.558;2024-03-17T04:00:58;101078.78;;;7.33;100.00
44457;BME280;30159;49.316;8.558;2024-03-17T04:03:25;101062.78;;;7.10;100.00
44457;BME280;30159;49.316;8.558;2024-03-17T04:06:04;101076.66;;;7.18;100.00
44457;BME280;30159;49.316;8.558;2024-03-17T04:08:31;101076.03;;;7.00;100.00
44457;BME280;30159;49.316;8.558;2024-03-17T04:10:58;101074.75;;;6.90;100.00
44457;BME280;30159;49.316;8.558;2024-03-17T04:13:26;101072.09;;;6.90;100.00
44457;BME280;30159;49.316;8.558;2024-03-17T04:15:53;101072.94;;;6.79;100.00
44457;BME280;30159;49.316;8.558;2024-03-17T04:18:22;101078.06;;;6.69;100.00
44457;BME280;30159;49.316;8.558;2024-03-17T04:20:50;101070.72;;;6.64;100.00
44457;BME280;30159;49.316;8.558;2024-03-17T04:23:18;101060.88;;;6.53;100.00
44457;BME280;30159;49.316;8.558;2024-03-17T04:25:45;101076.94;;;6.53;100.00
44457;BME280;30159;49.316;8.558;2024-03-17T04:28:11;101082.53;;;6.51;100.00
44457;BME280;30159;49.316;8.558;2024-03-17T04:30:38;101085.69;;;6.48;100.00
44457;BME280;30159;49.316;8.558;2024-03-17T04:33:05;101074.84;;;6.43;100.00
44457;BME280;30159;49.316;8.558;2024-03-17T04:35:35;101079.41;;;6.31;100.00
44457;BME280;30159;49.316;8.558;2024-03-17T04:38:02;101075.81;;;6.25;100.00
44457;BME280;30159;49.316;8.558;2024-03-17T04:40:30;101078.22;;;6.27;100.00
44457;BME280;30159;49.316;8.558;2024-03-17T04:42:57;101075.00;;;6.25;100.00
44457;BME280;30159;49.316;8.558;2024-03-17T04:45:23;101072.88;;;6.27;100.00
44457;BME280;30159;49.316;8.558;2024-03-17T04:47:50;101078.81;;;6.29;100.00
44457;BME280;30159;49.316;8.558;2024-03-17T04:50:17;101079.66;;;6.29;100.00
44457;BME280;30159;49.316;8.558;2024-03-17T04:52:43;101063.22;;;6.26;100.00
44457;BME280;30159;49.316;8.558;2024-03-17T04:55:10;101052.16;;;6.10;100.00
44457;BME280;30159;49.316;8.558;2024-03-17T04:57:38;101075.69;;;6.32;100.00
44457;BME280;30159;49.316;8.558;2024-03-17T05:00:06;101068.44;;;6.44;100.00
44457;BME280;30159;49.316;8.558;2024-03-17T05:02:33;101049.91;;;6.43;100.00
44457;BME280;30159;49.316;8.558;2024-03-17T05:04:59;101062.84;;;6.58;100.00
44457;BME280;30159;49.316;8.558;2024-03-17T05:07:26;101077.53;;;6.55;100.00
44457;BME280;30159;49.316;8.558;2024-03-17T05:09:53;101081.38;;;6.47;100.00
44457;BME280;30159;49.316;8.558;2024-03-17T05:12:19;101078.69;;;6.36;100.00
44457;BME280;30159;49.316;8.558;2024-03-17T05:14:48;101074.16;;;6.36;100.00
44457;BME280;30159;49.316;8.558;2024-03-17T05:17:14;101073.03;;;6.20;100.00
44457;BME280;30159;49.316;8.558;2024-03-17T05:19:41;101075.34;;;6.17;100.00
44457;BME280;30159;49.316;8.558;2024-03-17T05:22:08;101075.34;;;6.28;100.00
44457;BME280;30159;49.316;8.558;2024-03-17T05:24:35;101079.41;;;6.07;100.00
44457;BME280;30159;49.316;8.558;2024-03-17T05:27:02;101076.69;;;5.84;100.00
44457;BME280;30159;49.316;8.558;2024-03-17T05:29:29;101077.84;;;5.88;100.00
44457;BME280;30159;49.316;8.558;2024-03-17T05:31:57;101034.75;;;5.78;100.00
44457;BME280;30159;49.316;8.558;2024-03-17T05:34:24;101058.09;;;6.01;100.00
44457;BME280;30159;49.316;8.558;2024-03-17T05:36:51;101063.34;;;6.07;100.00
44457;BME280;30159;49.316;8.558;2024-03-17T05:39:18;101076.94;;;6.06;100.00
44457;BME280;30159;49.316;8.558;2024-03-17T05:41:45;101063.00;;;6.04;100.00
44457;BME280;30159;49.316;8.558;2024-03-17T05:44:14;101069.63;;;6.01;100.00
44457;BME280;30159;49.316;8.558;2024-03-17T05:46:40;101069.06;;;5.99;100.00
44457;BME280;30159;49.316;8.558;2024-03-17T05:49:09;101062.38;;;5.90;100.00
44457;BME280;30159;49.316;8.558;2024-03-17T05:51:35;101052.59;;;5.84;100.00
44457;BME280;30159;49.316;8.558;2024-03-17T05:54:02;101066.22;;;5.94;100.00
44457;BME280;30159;49.316;8.558;2024-03-17T05:56:29;101087.66;;;6.06;100.00
44457;BME280;30159;49.316;8.558;2024-03-17T05:58:55;101085.72;;;6.13;100.00
44457;BME280;30159;49.316;8.558;2024-03-17T06:01:22;101069.06;;;6.23;100.00
44457;BME280;30159;49.316;8.558;2024-03-17T06:03:49;101091.50;;;6.45;100.00
44457;BME280;30159;49.316;8.558;2024-03-17T06:06:17;101084.97;;;6.65;100.00
44457;BME280;30159;49.316;8.558;2024-03-17T06:08:44;101086.44;;;6.84;100.00
44457;BME280;30159;49.316;8.558;2024-03-17T06:11:10;101077.19;;;6.92;100.00
44457;BME280;30159;49.316;8.558;2024-03-17T06:13:37;101088.91;;;7.14;100.00
44457;BME280;30159;49.316;8.558;2024-03-17T06:16:04;101094.78;;;7.28;100.00
44457;BME280;30159;49.316;8.558;2024-03-17T06:18:31;101100.88;;;6.95;100.00
44457;BME280;30159;49.316;8.558;2024-03-17T06:20:58;100921.75;;;5.76;100.00
44457;BME280;30159;49.316;8.558;2024-03-17T06:23:26;101085.06;;;7.10;100.00
44457;BME280;30159;49.316;8.558;2024-03-17T06:25:53;101099.38;;;7.45;100.00
44457;BME280;30159;49.316;8.558;2024-03-17T06:28:20;101043.75;;;7.40;100.00
44457;BME280;30159;49.316;8.558;2024-03-17T06:30:54;101083.00;;;7.92;100.00
44457;BME280;30159;49.316;8.558;2024-03-17T06:33:21;101074.38;;;8.07;100.00
44457;BME280;30159;49.316;8.558;2024-03-17T06:35:48;101067.19;;;8.12;100.00
44457;BME280;30159;49.316;8.558;2024-03-17T06:38:14;101072.72;;;8.22;100.00
44457;BME280;30159;49.316;8.558;2024-03-17T06:40:48;101072.22;;;8.26;100.00
44457;BME280;30159;49.316;8.558;2024-03-17T06:43:14;101062.94;;;8.33;100.00
44457;BME280;30159;49.316;8.558;2024-03-17T06:45:41;101057.03;;;8.36;100.00
44457;BME280;30159;49.316;8.558;2024-03-17T06:48:08;101074.28;;;8.57;100.00
44457;BME280;30159;49.316;8.558;2024-03-17T06:50:34;101068.56;;;8.71;100.00
44457;BME280;30159;49.316;8.558;2024-03-17T06:53:01;101060.69;;;9.40;100.00
44457;BME280;30159;49.316;8.558;2024-03-17T06:55:31;101064.94;;;10.96;100.00
44457;BME280;30159;49.316;8.558;2024-03-17T06:57:59;101044.03;;;12.76;85.08
44457;BME280;30159;49.316;8.558;2024-03-17T07:00:25;101067.97;;;14.40;77.29
44457;BME280;30159;49.316;8.558;2024-03-17T07:02:53;101065.31;;;15.78;71.02
44457;BME280;30159;49.316;8.558;2024-03-17T07:05:19;101061.69;;;16.98;66.56
44457;BME280;30159;49.316;8.558;2024-03-17T07:07:46;101065.75;;;17.82;63.61
44457;BME280;30159;49.316;8.558;2024-03-17T07:10:13;101065.44;;;18.46;61.46
44457;BME280;30159;49.316;8.558;2024-03-17T07:12:41;101068.00;;;19.00;59.78
44457;BME280;30159;49.316;8.558;2024-03-17T07:15:09;101073.31;;;19.40;58.74
44457;BME280;30159;49.316;8.558;2024-03-17T07:17:36;101026.47;;;18.89;58.08
44457;BME280;30159;49.316;8.558;2024-03-17T07:20:04;101057.16;;;17.75;59.48
44457;BME280;30159;49.316;8.558;2024-03-17T07:22:34;101068.78;;;17.58;61.49
44457;BME280;30159;49.316;8.558;2024-03-17T07:25:01;100998.84;;;17.17;61.12
44457;BME280;30159;49.316;8.558;2024-03-17T07:27:28;101059.59;;;17.77;61.45
44457;BME280;30159;49.316;8.558;2024-03-17T07:29:55;101063.00;;;17.82;61.10
44457;BME280;30159;49.316;8.558;2024-03-17T07:32:23;101061.59;;;18.16;60.16
44457;BME280;30159;49.316;8.558;2024-03-17T07:34:49;101066.19;;;17.53;60.08
44457;BME280;30159;49.316;8.558;2024-03-17T07:37:16;101071.19;;;16.59;62.61
44457;BME280;30159;49.316;8.558;2024-03-17T07:39:43;101064.66;;;15.86;64.72
44457;BME280;30159;49.316;8.558;2024-03-17T07:42:09;101072.19;;;15.37;65.52
44457;BME280;30159;49.316;8.558;2024-03-17T07:44:38;101063.44;;;15.03;66.71
44457;BME280;30159;49.316;8.558;2024-03-17T07:47:05;100917.47;;;13.60;70.04
44457;BME280;30159;49.316;8.558;2024-03-17T07:49:34;101051.34;;;14.23;69.25
44457;BME280;30159;49.316;8.558;2024-03-17T07:52:00;101045.88;;;14.28;70.65
44457;BME280;30159;49.316;8.558;2024-03-17T07:54:27;101024.03;;;14.14;71.70
44457;BME280;30159;49.316;8.558;2024-03-17T07:56:54;101044.91;;;13.89;72.65
44457;BME280;30159;49.316;8.558;2024-03-17T07:59:20;101031.03;;;13.91;72.27
44457;BME280;30159;49.316;8.558;2024-03-17T08:01:47;101057.78;;;14.03;73.18
44457;BME280;30159;49.316;8.558;2024-03-17T08:04:14;101057.25;;;14.30;72.80
44457;BME280;30159;49.316;8.558;2024-03-17T08:06:42;101059.44;;;14.28;72.72
44457;BME280;30159;49.316;8.558;2024-03-17T08:09:09;101071.31;;;14.08;71.92
44457;BME280;30159;49.316;8.558;2024-03-17T08:11:37;101073.66;;;14.20;72.51
44457;BME280;30159;49.316;8.558;2024-03-17T08:14:09;101070.16;;;14.14;73.12
44457;BME280;30159;49.316;8.558;2024-03-17T08:16:35;101075.44;;;14.00;73.30
44457;BME280;30159;49.316;8.558;2024-03-17T08:19:02;101055.22;;;13.87;73.27
44457;BME280;30159;49.316;8.558;2024-03-17T08:21:29;101083.19;;;14.12;73.31
44457;BME280;30159;49.316;8.558;2024-03-17T08:23:57;101074.38;;;14.25;73.45
44457;BME280;30159;49.316;8.558;2024-03-17T08:26:24;101065.91;;;14.32;72.15
44457;BME280;30159;49.316;8.558;2024-03-17T08:28:51;101038.97;;;13.87;74.13
44457;BME280;30159;49.316;8.558;2024-03-17T08:31:17;101063.94;;;14.13;74.51
44457;BME280;30159;49.316;8.558;2024-03-17T08:33:44;101054.00;;;14.28;74.72
44457;BME280;30159;49.316;8.558;2024-03-17T08:36:16;101054.31;;;14.50;72.93
44457;BME280;30159;49.316;8.558;2024-03-17T08:38:44;101038.66;;;14.42;73.33
44457;BME280;30159;49.316;8.558;2024-03-17T08:41:12;101062.03;;;14.38;74.61
44457;BME280;30159;49.316;8.558;2024-03-17T08:43:39;101054.13;;;14.66;73.76
44457;BME280;30159;49.316;8.558;2024-03-17T08:46:07;101047.69;;;14.62;73.04
44457;BME280;30159;49.316;8.558;2024-03-17T08:48:35;101026.84;;;14.57;74.79
44457;BME280;30159;49.316;8.558;2024-03-17T08:51:04;101044.47;;;14.30;74.68
44457;BME280;30159;49.316;8.558;2024-03-17T08:53:31;101045.72;;;14.43;75.18
44457;BME280;30159;49.316;8.558;2024-03-17T08:55:59;101040.88;;;14.64;73.28
44457;BME280;30159;49.316;8.558;2024-03-17T08:58:27;101050.66;;;14.84;73.16
44457;BME280;30159;49.316;8.558;2024-03-17T09:00:53;101044.69;;;14.82;73.03
44457;BME280;30159;49.316;8.558;2024-03-17T09:03:21;101056.81;;;14.71;73.13
44457;BME280;30159;49.316;8.558;2024-03-17T09:05:49;101046.13;;;14.56;73.82
44457;BME280;30159;49.316;8.558;2024-03-17T09:08:20;101020.25;;;14.63;73.73
44457;BME280;30159;49.316;8.558;2024-03-17T09:10:49;101032.66;;;14.45;72.21
44457;BME280;30159;49.316;8.558;2024-03-17T09:13:17;101038.63;;;13.94;74.59
44457;BME280;30159;49.316;8.558;2024-03-17T09:15:53;101033.91;;;14.05;76.15
44457;BME280;30159;49.316;8.558;2024-03-17T09:18:20;101030.25;;;14.15;76.95
44457;BME280;30159;49.316;8.558;2024-03-17T09:20:55;100904.75;;;13.85;76.74
44457;BME280;30159;49.316;8.558;2024-03-17T09:23:22;101036.72;;;14.91;74.56
44457;BME280;30159;49.316;8.558;2024-03-17T09:25:55;101016.81;;;14.95;75.08
44457;BME280;30159;49.316;8.558;2024-03-17T09:28:22;101005.75;;;15.11;73.54
44457;BME280;30159;49.316;8.558;2024-03-17T09:30:48;101037.75;;;15.14;74.01
44457;BME280;30159;49.316;8.558;2024-03-17T09:33:16;101033.09;;;15.33;73.35
44457;BME280;30159;49.316;8.558;2024-03-17T09:35:43;101022.59;;;15.46;72.17
44457;BME280;30159;49.316;8.558;2024-03-17T09:38:09;101042.53;;;15.41;72.84
44457;BME280;30159;49.316;8.558;2024-03-17T09:40:36;101026.84;;;15.52;73.23
44457;BME280;30159;49.316;8.558;2024-03-17T09:43:03;101025.34;;;15.78;70.89
44457;BME280;30159;49.316;8.558;2024-03-17T09:45:30;101018.47;;;15.48;72.12
44457;BME280;30159;49.316;8.558;2024-03-17T09:47:59;101031.47;;;15.70;72.38
44457;BME280;30159;49.316;8.558;2024-03-17T09:50:27;101023.75;;;15.58;73.34
44457;BME280;30159;49.316;8.558;2024-03-17T09:52:54;101030.31;;;15.57;73.61
44457;BME280;30159;49.316;8.558;2024-03-17T09:55:21;101030.91;;;15.68;73.11
44457;BME280;30159;49.316;8.558;2024-03-17T09:57:48;101024.13;;;15.85;72.32
44457;BME280;30159;49.316;8.558;2024-03-17T10:00:15;100956.56;;;15.59;70.87
44457;BME280;30159;49.316;8.558;2024-03-17T10:02:42;101015.19;;;15.98;72.66
44457;BME280;30159;49.316;8.558;2024-03-17T10:05:19;101027.81;;;16.21;70.85
44457;BME280;30159;49.316;8.558;2024-03-17T10:07:48;101000.19;;;16.00;72.32
44457;BME280;30159;49.316;8.558;2024-03-17T10:10:16;101008.88;;;16.16;70.62
44457;BME280;30159;49.316;8.558;2024-03-17T10:12:44;101015.59;;;15.91;70.49
44457;BME280;30159;49.316;8.558;2024-03-17T10:15:11;101014.59;;;16.01;71.16
44457;BME280;30159;49.316;8.558;2024-03-17T10:17:41;101034.66;;;16.05;70.19
44457;BME280;30159;49.316;8.558;2024-03-17T10:20:11;101039.31;;;15.72;71.39
44457;BME280;30159;49.316;8.558;2024-03-17T10:22:53;101031.69;;;15.55;73.20
44457;BME280;30159;49.316;8.558;2024-03-17T10:25:24;101042.69;;;15.64;73.90
44457;BME280;30159;49.316;8.558;2024-03-17T10:27:51;101031.63;;;15.60;73.06
44457;BME280;30159;49.316;8.558;2024-03-17T10:30:19;101041.78;;;15.68;73.35
44457;BME280;30159;49.316;8.558;2024-03-17T10:32:52;101037.03;;;15.79;73.57
44457;BME280;30159;49.316;8.558;2024-03-17T10:35:30;101033.53;;;15.59;73.05
44457;BME280;30159;49.316;8.558;2024-03-17T10:38:00;101040.03;;;15.77;73.68
44457;BME280;30159;49.316;8.558;2024-03-17T10:40:28;101027.28;;;16.06;73.04
44457;BME280;30159;49.316;8.558;2024-03-17T10:42:57;101034.69;;;16.33;72.27
44457;BME280;30159;49.316;8.558;2024-03-17T10:45:25;101030.75;;;16.39;71.23
44457;BME280;30159;49.316;8.558;2024-03-17T10:47:52;101047.97;;;16.76;71.90
44457;BME280;30159;49.316;8.558;2024-03-17T10:50:20;101034.69;;;16.60;71.37
44457;BME280;30159;49.316;8.558;2024-03-17T10:52:48;101024.78;;;16.64;69.94
44457;BME280;30159;49.316;8.558;2024-03-17T10:55:22;101017.56;;;16.96;70.21
44457;BME280;30159;49.316;8.558;2024-03-17T10:57:50;101018.03;;;17.12;68.66
44457;BME280;30159;49.316;8.558;2024-03-17T11:00:19;101007.66;;;17.37;68.66
44457;BME280;30159;49.316;8.558;2024-03-17T11:02:48;100996.22;;;17.57;67.55
44457;BME280;30159;49.316;8.558;2024-03-17T11:05:19;101007.81;;;17.18;65.89
44457;BME280;30159;49.316;8.558;2024-03-17T11:07:49;101003.41;;;16.72;65.99
44457;BME280;30159;49.316;8.558;2024-03-17T11:10:21;100997.97;;;16.58;69.73
44457;BME280;30159;49.316;8.558;2024-03-17T11:12:49;100988.94;;;17.21;69.59
44457;BME280;30159;49.316;8.558;2024-03-17T11:15:36;100965.81;;;17.41;67.42
44457;BME280;30159;49.316;8.558;2024-03-17T11:21:06;100957.78;;;17.99;65.60
44457;BME280;30159;49.316;8.558;2024-03-17T11:23:41;100965.88;;;18.21;66.43
44457;BME280;30159;49.316;8.558;2024-03-17T11:26:09;100969.69;;;18.60;65.24
44457;BME280;30159;49.316;8.558;2024-03-17T11:28:47;100904.88;;;18.35;64.69
44457;BME280;30159;49.316;8.558;2024-03-17T11:31:35;100952.00;;;18.75;64.72
44457;BME280;30159;49.316;8.558;2024-03-17T11:34:06;100972.75;;;18.67;64.01
44457;BME280;30159;49.316;8.558;2024-03-17T11:36:34;100965.84;;;18.87;63.42
44457;BME280;30159;49.316;8.558;2024-03-17T11:39:03;100966.34;;;18.98;63.95
44457;BME280;30159;49.316;8.558;2024-03-17T11:41:36;100948.44;;;18.57;65.41
44457;BME280;30159;49.316;8.558;2024-03-17T11:44:14;100969.41;;;18.79;65.01
44457;BME280;30159;49.316;8.558;2024-03-17T11:46:40;100967.97;;;18.82;64.81
44457;BME280;30159;49.316;8.558;2024-03-17T11:49:16;100952.31;;;18.65;62.06
44457;BME280;30159;49.316;8.558;2024-03-17T11:51:43;100962.59;;;18.68;60.75
44457;BME280;30159;49.316;8.558;2024-03-17T11:54:13;100954.44;;;18.85;60.45
44457;BME280;30159;49.316;8.558;2024-03-17T11:56:41;100950.91;;;18.85;61.98
44457;BME280;30159;49.316;8.558;2024-03-17T11:59:09;100953.00;;;18.97;61.78
44457;BME280;30159;49.316;8.558;2024-03-17T12:01:34;100956.34;;;19.11;59.97
44457;BME280;30159;49.316;8.558;2024-03-17T12:04:01;100955.59;;;18.18;61.93
44457;BME280;30159;49.316;8.558;2024-03-17T12:06:31;100935.19;;;18.07;60.84
44457;BME280;30159;49.316;8.558;2024-03-17T12:09:08;100965.31;;;17.39;61.64
44457;BME280;30159;49.316;8.558;2024-03-17T12:11:35;100963.56;;;17.43;63.17
44457;BME280;30159;49.316;8.558;2024-03-17T12:14:13;100948.59;;;17.32;62.87
44457;BME280;30159;49.316;8.558;2024-03-17T12:16:46;100951.41;;;17.49;62.14
44457;BME280;30159;49.316;8.558;2024-03-17T12:19:14;100950.34;;;16.69;63.27
44457;BME280;30159;49.316;8.558;2024-03-17T12:21:43;100947.47;;;16.88;64.68
44457;BME280;30159;49.316;8.558;2024-03-17T12:24:14;100924.06;;;17.32;64.82
44457;BME280;30159;49.316;8.558;2024-03-17T12:26:40;100936.97;;;17.80;63.03
44457;BME280;30159;49.316;8.558;2024-03-17T12:29:23;100911.81;;;17.83;61.73
44457;BME280;30159;49.316;8.558;2024-03-17T12:31:50;100922.13;;;18.04;61.93
44457;BME280;30159;49.316;8.558;2024-03-17T12:34:18;100924.59;;;18.14;61.37
44457;BME280;30159;49.316;8.558;2024-03-17T12:36:44;100907.03;;;17.04;62.04
44457;BME280;30159;49.316;8.558;2024-03-17T12:39:11;100927.22;;;17.03;63.14
44457;BME280;30159;49.316;8.558;2024-03-17T12:41:43;100918.19;;;17.16;63.64
44457;BME280;30159;49.316;8.558;2024-03-17T12:44:22;100915.06;;;17.63;62.03
44457;BME280;30159;49.316;8.558;2024-03-17T12:46:54;100902.84;;;17.92;61.58
44457;BME280;30159;49.316;8.558;2024-03-17T12:49:20;100910.13;;;18.05;62.15
44457;BME280;30159;49.316;8.558;2024-03-17T12:51:47;100908.69;;;18.25;61.06
44457;BME280;30159;49.316;8.558;2024-03-17T12:54:14;100899.34;;;18.08;60.48
44457;BME280;30159;49.316;8.558;2024-03-17T12:56:40;100911.28;;;18.21;61.48